sensor_id;sensor_type;location;lat;lon;timestamp;temperature;humidity
61386;DHT22;47256;18.904;-99.054;2024-01-11T00:02:08;25.10;72.90
61386;DHT22;47256;18.904;-99.054;2024-01-11T00:04:35;25.10;74.20
61386;DHT22;47256;18.904;-99.054;2024-01-11T00:07:02;25.00;74.60
61386;DHT22;47256;18.904;-99.054;2024-01-11T00:09:29;24.90;75.70
61386;DHT22;47256;18.904;-99.054;2024-01-11T00:11:57;24.90;75.20
61386;DHT22;47256;18.904;-99.054;2024-01-11T00:14:24;24.90;74.80
61386;DHT22;47256;18.904;-99.054;2024-01-11T00:16:51;24.80;75.50
61386;DHT22;47256;18.904;-99.054;2024-01-11T00:19:43;24.80;76.70
61386;DHT22;47256;18.904;-99.054;2024-01-11T00:22:11;24.70;77.80
61386;DHT22;47256;18.904;-99.054;2024-01-11T00:24:39;24.60;78.00
61386;DHT22;47256;18.904;-99.054;2024-01-11T00:27:08;24.50;77.10
61386;DHT22;47256;18.904;-99.054;2024-01-11T00:29:36;24.40;78.10
61386;DHT22;47256;18.904;-99.054;2024-01-11T00:32:03;24.40;79.20
61386;DHT22;47256;18.904;-99.054;2024-01-11T00:34:31;24.30;79.60
61386;DHT22;47256;18.904;-99.054;2024-01-11T00:36:59;24.20;80.00
61386;DHT22;47256;18.904;-99.054;2024-01-11T00:39:26;24.20;79.60
61386;DHT22;47256;18.904;-99.054;2024-01-11T00:41:53;24.20;80.40
61386;DHT22;47256;18.904;-99.054;2024-01-11T00:44:21;24.10;81.00
61386;DHT22;47256;18.904;-99.054;2024-01-11T00:46:48;24.10;80.10
61386;DHT22;47256;18.904;-99.054;2024-01-11T00:49:16;24.10;81.20
61386;DHT22;47256;18.904;-99.054;2024-01-11T00:51:43;24.00;81.90
61386;DHT22;47256;18.904;-99.054;2024-01-11T00:54:10;24.00;82.70
61386;DHT22;47256;18.904;-99.054;2024-01-11T00:56:37;23.90;83.30
61386;DHT22;47256;18.904;-99.054;2024-01-11T00:59:04;23.90;83.60
61386;DHT22;47256;18.904;-99.054;2024-01-11T01:01:32;23.80;84.40
61386;DHT22;47256;18.904;-99.054;2024-01-11T01:03:59;23.70;84.60
61386;DHT22;47256;18.904;-99.054;2024-01-11T01:06:26;23.60;85.30
61386;DHT22;47256;18.904;-99.054;2024-01-11T01:08:55;23.50;85.60
61386;DHT22;47256;18.904;-99.054;2024-01-11T01:11:22;23.40;86.40
61386;DHT22;47256;18.904;-99.054;2024-01-11T01:13:49;23.40;86.70
61386;DHT22;47256;18.904;-99.054;2024-01-11T01:16:17;23.30;86.80
61386;DHT22;47256;18.904;-99.054;2024-01-11T01:18:44;23.20;86.40
61386;DHT22;47256;18.904;-99.054;2024-01-11T01:21:11;23.20;87.10
61386;DHT22;47256;18.904;-99.054;2024-01-11T01:23:40;23.10;87.40
61386;DHT22;47256;18.904;-99.054;2024-01-11T01:26:11;23.10;88.10
61386;DHT22;47256;18.904;-99.054;2024-01-11T01:28:38;23.10;88.10
61386;DHT22;47256;18.904;-99.054;2024-01-11T01:31:06;23.10;87.90
61386;DHT22;47256;18.904;-99.054;2024-01-11T01:33:34;23.10;87.30
61386;DHT22;47256;18.904;-99.054;2024-01-11T01:36:01;23.10;88.50
61386;DHT22;47256;18.904;-99.054;2024-01-11T01:38:29;23.00;87.20
61386;DHT22;47256;18.904;-99.054;2024-01-11T01:40:57;23.00;85.30
61386;DHT22;47256;18.904;-99.054;2024-01-11T01:43:24;23.00;87.30
61386;DHT22;47256;18.904;-99.054;2024-01-11T01:45:51;22.90;84.10
61386;DHT22;47256;18.904;-99.054;2024-01-11T01:48:20;22.90;84.80
61386;DHT22;47256;18.904;-99.054;2024-01-11T01:50:47;22.80;80.80
61386;DHT22;47256;18.904;-99.054;2024-01-11T01:53:22;22.80;81.10
61386;DHT22;47256;18.904;-99.054;2024-01-11T01:55:51;22.90;81.50
61386;DHT22;47256;18.904;-99.054;2024-01-11T01:58:19;22.90;85.60
61386;DHT22;47256;18.904;-99.054;2024-01-11T02:00:49;22.80;80.80
61386;DHT22;47256;18.904;-99.054;2024-01-11T02:03:18;22.80;77.60
61386;DHT22;47256;18.904;-99.054;2024-01-11T02:05:45;22.90;78.60
61386;DHT22;47256;18.904;-99.054;2024-01-11T02:08:16;22.90;78.30
61386;DHT22;47256;18.904;-99.054;2024-01-11T02:10:44;22.90;78.60
61386;DHT22;47256;18.904;-99.054;2024-01-11T02:13:12;22.90;79.20
61386;DHT22;47256;18.904;-99.054;2024-01-11T02:15:40;22.80;79.30
61386;DHT22;47256;18.904;-99.054;2024-01-11T02:18:07;22.70;79.80
61386;DHT22;47256;18.904;-99.054;2024-01-11T02:20:35;22.70;80.40
61386;DHT22;47256;18.904;-99.054;2024-01-11T02:23:08;22.60;80.80
61386;DHT22;47256;18.904;-99.054;2024-01-11T02:25:37;22.60;80.80
61386;DHT22;47256;18.904;-99.054;2024-01-11T02:28:04;22.50;81.70
61386;DHT22;47256;18.904;-99.054;2024-01-11T02:30:31;22.50;82.30
61386;DHT22;47256;18.904;-99.054;2024-01-11T02:33:01;22.50;83.90
61386;DHT22;47256;18.904;-99.054;2024-01-11T02:35:29;22.40;82.80
61386;DHT22;47256;18.904;-99.054;2024-01-11T02:37:58;22.30;84.20
61386;DHT22;47256;18.904;-99.054;2024-01-11T02:40:26;22.20;85.80
61386;DHT22;47256;18.904;-99.054;2024-01-11T02:42:53;22.10;85.90
61386;DHT22;47256;18.904;-99.054;2024-01-11T02:45:20;22.10;87.70
61386;DHT22;47256;18.904;-99.054;2024-01-11T02:47:48;22.00;87.60
61386;DHT22;47256;18.904;-99.054;2024-01-11T02:50:15;21.90;87.30
61386;DHT22;47256;18.904;-99.054;2024-01-11T02:52:42;21.80;87.40
61386;DHT22;47256;18.904;-99.054;2024-01-11T02:55:10;21.70;86.90
61386;DHT22;47256;18.904;-99.054;2024-01-11T02:57:37;21.60;87.40
61386;DHT22;47256;18.904;-99.054;2024-01-11T03:00:05;21.50;87.70
61386;DHT22;47256;18.904;-99.054;2024-01-11T03:02:33;21.40;88.50
61386;DHT22;47256;18.904;-99.054;2024-01-11T03:05:00;21.40;89.20
61386;DHT22;47256;18.904;-99.054;2024-01-11T03:07:27;21.40;87.60
61386;DHT22;47256;18.904;-99.054;2024-01-11T03:09:55;21.40;88.20
61386;DHT22;47256;18.904;-99.054;2024-01-11T03:12:22;21.30;87.60
61386;DHT22;47256;18.904;-99.054;2024-01-11T03:14:52;21.30;86.70
61386;DHT22;47256;18.904;-99.054;2024-01-11T03:17:20;21.30;87.00
61386;DHT22;47256;18.904;-99.054;2024-01-11T03:19:47;21.30;87.90
61386;DHT22;47256;18.904;-99.054;2024-01-11T03:22:15;21.30;88.30
61386;DHT22;47256;18.904;-99.054;2024-01-11T03:24:42;21.30;88.30
61386;DHT22;47256;18.904;-99.054;2024-01-11T03:27:11;21.30;87.90
61386;DHT22;47256;18.904;-99.054;2024-01-11T03:29:38;21.30;88.20
61386;DHT22;47256;18.904;-99.054;2024-01-11T03:32:06;21.30;88.00
61386;DHT22;47256;18.904;-99.054;2024-01-11T03:34:34;21.30;88.10
61386;DHT22;47256;18.904;-99.054;2024-01-11T03:37:01;21.20;88.10
61386;DHT22;47256;18.904;-99.054;2024-01-11T03:39:29;21.20;88.50
61386;DHT22;47256;18.904;-99.054;2024-01-11T03:41:56;21.10;88.20
61386;DHT22;47256;18.904;-99.054;2024-01-11T03:44:23;21.00;88.80
61386;DHT22;47256;18.904;-99.054;2024-01-11T03:46:50;21.00;89.60
61386;DHT22;47256;18.904;-99.054;2024-01-11T03:49:18;20.90;90.70
61386;DHT22;47256;18.904;-99.054;2024-01-11T03:51:45;20.70;90.40
61386;DHT22;47256;18.904;-99.054;2024-01-11T03:54:12;20.70;90.40
61386;DHT22;47256;18.904;-99.054;2024-01-11T03:56:40;20.70;90.90
61386;DHT22;47256;18.904;-99.054;2024-01-11T03:59:07;20.70;90.40
61386;DHT22;47256;18.904;-99.054;2024-01-11T04:01:41;20.60;91.10
61386;DHT22;47256;18.904;-99.054;2024-01-11T04:04:08;20.40;91.20
61386;DHT22;47256;18.904;-99.054;2024-01-11T04:06:35;20.40;91.10
61386;DHT22;47256;18.904;-99.054;2024-01-11T04:09:03;20.40;91.10
61386;DHT22;47256;18.904;-99.054;2024-01-11T04:11:31;20.50;91.30
61386;DHT22;47256;18.904;-99.054;2024-01-11T04:13:58;20.40;91.40
61386;DHT22;47256;18.904;-99.054;2024-01-11T04:16:25;20.40;91.40
61386;DHT22;47256;18.904;-99.054;2024-01-11T04:18:52;20.40;91.20
61386;DHT22;47256;18.904;-99.054;2024-01-11T04:21:26;20.40;91.20
61386;DHT22;47256;18.904;-99.054;2024-01-11T04:23:57;20.40;91.50
61386;DHT22;47256;18.904;-99.054;2024-01-11T04:26:25;20.30;91.40
61386;DHT22;47256;18.904;-99.054;2024-01-11T04:28:52;20.20;92.20
61386;DHT22;47256;18.904;-99.054;2024-01-11T04:31:20;20.00;92.40
61386;DHT22;47256;18.904;-99.054;2024-01-11T04:33:47;20.00;92.30
61386;DHT22;47256;18.904;-99.054;2024-01-11T04:36:15;20.00;92.30
61386;DHT22;47256;18.904;-99.054;2024-01-11T04:38:42;20.00;92.50
61386;DHT22;47256;18.904;-99.054;2024-01-11T04:41:12;20.00;92.00
61386;DHT22;47256;18.904;-99.054;2024-01-11T04:43:40;20.00;92.00
61386;DHT22;47256;18.904;-99.054;2024-01-11T04:46:21;19.90;92.50
61386;DHT22;47256;18.904;-99.054;2024-01-11T04:48:49;19.80;92.40
61386;DHT22;47256;18.904;-99.054;2024-01-11T04:51:17;19.80;92.40
61386;DHT22;47256;18.904;-99.054;2024-01-11T04:53:45;19.80;92.10
61386;DHT22;47256;18.904;-99.054;2024-01-11T04:56:15;19.80;92.00
61386;DHT22;47256;18.904;-99.054;2024-01-11T04:58:44;19.80;92.00
61386;DHT22;47256;18.904;-99.054;2024-01-11T05:01:17;19.70;92.50
61386;DHT22;47256;18.904;-99.054;2024-01-11T05:03:46;19.70;92.50
61386;DHT22;47256;18.904;-99.054;2024-01-11T05:06:21;19.60;92.30
61386;DHT22;47256;18.904;-99.054;2024-01-11T05:08:51;19.60;92.60
61386;DHT22;47256;18.904;-99.054;2024-01-11T05:11:22;19.70;92.40
61386;DHT22;47256;18.904;-99.054;2024-01-11T05:13:53;19.60;92.40
61386;DHT22;47256;18.904;-99.054;2024-01-11T05:16:29;19.60;92.30
61386;DHT22;47256;18.904;-99.054;2024-01-11T05:19:00;19.40;91.80
61386;DHT22;47256;18.904;-99.054;2024-01-11T05:21:27;19.20;91.80
61386;DHT22;47256;18.904;-99.054;2024-01-11T05:23:55;19.10;92.00
61386;DHT22;47256;18.904;-99.054;2024-01-11T05:26:23;19.20;92.40
61386;DHT22;47256;18.904;-99.054;2024-01-11T05:28:50;19.20;92.40
61386;DHT22;47256;18.904;-99.054;2024-01-11T05:31:17;19.20;92.60
61386;DHT22;47256;18.904;-99.054;2024-01-11T05:33:44;19.20;92.90
61386;DHT22;47256;18.904;-99.054;2024-01-11T05:36:14;19.20;93.30
61386;DHT22;47256;18.904;-99.054;2024-01-11T05:38:42;19.10;93.40
61386;DHT22;47256;18.904;-99.054;2024-01-11T05:41:09;19.00;93.50
61386;DHT22;47256;18.904;-99.054;2024-01-11T05:43:38;19.00;94.00
61386;DHT22;47256;18.904;-99.054;2024-01-11T05:46:06;18.90;94.00
61386;DHT22;47256;18.904;-99.054;2024-01-11T05:48:34;18.80;94.50
61386;DHT22;47256;18.904;-99.054;2024-01-11T05:51:01;18.70;94.70
61386;DHT22;47256;18.904;-99.054;2024-01-11T05:53:28;18.60;94.70
61386;DHT22;47256;18.904;-99.054;2024-01-11T05:55:55;18.70;94.40
61386;DHT22;47256;18.904;-99.054;2024-01-11T05:58:23;18.60;94.20
61386;DHT22;47256;18.904;-99.054;2024-01-11T06:00:50;18.70;94.20
61386;DHT22;47256;18.904;-99.054;2024-01-11T06:03:18;18.70;94.40
61386;DHT22;47256;18.904;-99.054;2024-01-11T06:05:45;18.70;94.20
61386;DHT22;47256;18.904;-99.054;2024-01-11T06:08:13;18.70;94.50
61386;DHT22;47256;18.904;-99.054;2024-01-11T06:10:40;18.70;94.50
61386;DHT22;47256;18.904;-99.054;2024-01-11T06:13:08;18.60;94.60
61386;DHT22;47256;18.904;-99.054;2024-01-11T06:15:36;18.50;94.60
61386;DHT22;47256;18.904;-99.054;2024-01-11T06:18:04;18.50;94.20
61386;DHT22;47256;18.904;-99.054;2024-01-11T06:20:31;18.60;94.30
61386;DHT22;47256;18.904;-99.054;2024-01-11T06:23:03;18.60;94.40
61386;DHT22;47256;18.904;-99.054;2024-01-11T06:25:30;18.50;94.30
61386;DHT22;47256;18.904;-99.054;2024-01-11T06:27:57;18.50;94.10
61386;DHT22;47256;18.904;-99.054;2024-01-11T06:30:25;18.50;94.10
61386;DHT22;47256;18.904;-99.054;2024-01-11T06:32:53;18.50;94.10
61386;DHT22;47256;18.904;-99.054;2024-01-11T06:35:20;18.50;94.10
61386;DHT22;47256;18.904;-99.054;2024-01-11T06:37:47;18.40;94.40
61386;DHT22;47256;18.904;-99.054;2024-01-11T06:40:15;18.40;94.40
61386;DHT22;47256;18.904;-99.054;2024-01-11T06:42:42;18.40;94.20
61386;DHT22;47256;18.904;-99.054;2024-01-11T06:45:09;18.40;94.40
61386;DHT22;47256;18.904;-99.054;2024-01-11T06:47:37;18.30;94.00
61386;DHT22;47256;18.904;-99.054;2024-01-11T06:50:05;18.40;94.20
61386;DHT22;47256;18.904;-99.054;2024-01-11T06:52:32;18.30;94.30
61386;DHT22;47256;18.904;-99.054;2024-01-11T06:54:59;18.20;94.80
61386;DHT22;47256;18.904;-99.054;2024-01-11T06:57:27;18.10;94.80
61386;DHT22;47256;18.904;-99.054;2024-01-11T06:59:54;18.10;94.80
61386;DHT22;47256;18.904;-99.054;2024-01-11T07:02:22;18.00;95.00
61386;DHT22;47256;18.904;-99.054;2024-01-11T07:04:49;18.00;95.30
61386;DHT22;47256;18.904;-99.054;2024-01-11T07:07:17;17.90;95.20
61386;DHT22;47256;18.904;-99.054;2024-01-11T07:09:44;17.80;95.10
61386;DHT22;47256;18.904;-99.054;2024-01-11T07:12:11;17.80;95.20
61386;DHT22;47256;18.904;-99.054;2024-01-11T07:14:39;17.70;95.50
61386;DHT22;47256;18.904;-99.054;2024-01-11T07:17:06;17.80;95.30
61386;DHT22;47256;18.904;-99.054;2024-01-11T07:19:33;17.80;95.10
61386;DHT22;47256;18.904;-99.054;2024-01-11T07:22:01;17.80;95.60
61386;DHT22;47256;18.904;-99.054;2024-01-11T07:24:28;17.70;95.60
61386;DHT22;47256;18.904;-99.054;2024-01-11T07:27:05;17.70;95.80
61386;DHT22;47256;18.904;-99.054;2024-01-11T07:29:35;17.70;95.60
61386;DHT22;47256;18.904;-99.054;2024-01-11T07:32:03;17.70;95.50
61386;DHT22;47256;18.904;-99.054;2024-01-11T07:34:33;17.80;95.50
61386;DHT22;47256;18.904;-99.054;2024-01-11T07:37:00;17.80;95.40
61386;DHT22;47256;18.904;-99.054;2024-01-11T07:39:29;17.80;95.70
61386;DHT22;47256;18.904;-99.054;2024-01-11T07:41:57;17.80;95.90
61386;DHT22;47256;18.904;-99.054;2024-01-11T07:44:24;17.80;95.80
61386;DHT22;47256;18.904;-99.054;2024-01-11T07:46:52;17.80;95.60
61386;DHT22;47256;18.904;-99.054;2024-01-11T07:49:19;17.80;95.50
61386;DHT22;47256;18.904;-99.054;2024-01-11T07:51:47;17.80;95.40
61386;DHT22;47256;18.904;-99.054;2024-01-11T07:54:14;17.80;95.50
61386;DHT22;47256;18.904;-99.054;2024-01-11T07:56:42;17.80;95.50
61386;DHT22;47256;18.904;-99.054;2024-01-11T07:59:09;17.80;95.50
61386;DHT22;47256;18.904;-99.054;2024-01-11T08:01:41;17.80;95.50
61386;DHT22;47256;18.904;-99.054;2024-01-11T08:04:08;17.80;95.60
61386;DHT22;47256;18.904;-99.054;2024-01-11T08:06:35;17.70;95.70
61386;DHT22;47256;18.904;-99.054;2024-01-11T08:09:02;17.60;96.10
61386;DHT22;47256;18.904;-99.054;2024-01-11T08:11:31;17.50;96.20
61386;DHT22;47256;18.904;-99.054;2024-01-11T08:13:59;17.50;96.40
61386;DHT22;47256;18.904;-99.054;2024-01-11T08:16:26;17.50;96.40
61386;DHT22;47256;18.904;-99.054;2024-01-11T08:18:54;17.40;96.50
61386;DHT22;47256;18.904;-99.054;2024-01-11T08:21:21;17.40;96.50
61386;DHT22;47256;18.904;-99.054;2024-01-11T08:23:49;17.30;96.70
61386;DHT22;47256;18.904;-99.054;2024-01-11T08:26:16;17.20;96.80
61386;DHT22;47256;18.904;-99.054;2024-01-11T08:28:48;17.10;96.90
61386;DHT22;47256;18.904;-99.054;2024-01-11T08:31:15;17.10;96.90
61386;DHT22;47256;18.904;-99.054;2024-01-11T08:33:45;17.10;96.90
61386;DHT22;47256;18.904;-99.054;2024-01-11T08:36:12;17.10;96.90
61386;DHT22;47256;18.904;-99.054;2024-01-11T08:38:39;17.20;96.90
61386;DHT22;47256;18.904;-99.054;2024-01-11T08:41:07;17.20;97.00
61386;DHT22;47256;18.904;-99.054;2024-01-11T08:43:34;17.20;97.00
61386;DHT22;47256;18.904;-99.054;2024-01-11T08:46:02;17.10;97.20
61386;DHT22;47256;18.904;-99.054;2024-01-11T08:48:29;17.00;97.40
61386;DHT22;47256;18.904;-99.054;2024-01-11T08:50:57;17.00;97.30
61386;DHT22;47256;18.904;-99.054;2024-01-11T08:53:25;16.90;97.20
61386;DHT22;47256;18.904;-99.054;2024-01-11T08:55:52;16.90;97.20
61386;DHT22;47256;18.904;-99.054;2024-01-11T08:58:20;16.80;97.20
61386;DHT22;47256;18.904;-99.054;2024-01-11T09:00:47;16.80;97.30
61386;DHT22;47256;18.904;-99.054;2024-01-11T09:03:14;16.70;97.10
61386;DHT22;47256;18.904;-99.054;2024-01-11T09:05:43;16.60;97.40
61386;DHT22;47256;18.904;-99.054;2024-01-11T09:08:11;16.60;97.30
61386;DHT22;47256;18.904;-99.054;2024-01-11T09:10:38;16.60;97.60
61386;DHT22;47256;18.904;-99.054;2024-01-11T09:13:08;16.50;97.60
61386;DHT22;47256;18.904;-99.054;2024-01-11T09:15:35;16.50;97.80
61386;DHT22;47256;18.904;-99.054;2024-01-11T09:18:02;16.50;97.90
61386;DHT22;47256;18.904;-99.054;2024-01-11T09:20:30;16.60;97.90
61386;DHT22;47256;18.904;-99.054;2024-01-11T09:22:58;16.70;97.70
61386;DHT22;47256;18.904;-99.054;2024-01-11T09:25:25;16.70;97.70
61386;DHT22;47256;18.904;-99.054;2024-01-11T09:27:52;16.60;97.60
61386;DHT22;47256;18.904;-99.054;2024-01-11T09:30:19;16.30;97.80
61386;DHT22;47256;18.904;-99.054;2024-01-11T09:32:46;16.30;97.90
61386;DHT22;47256;18.904;-99.054;2024-01-11T09:35:40;16.40;98.00
61386;DHT22;47256;18.904;-99.054;2024-01-11T09:38:09;16.40;97.90
61386;DHT22;47256;18.904;-99.054;2024-01-11T09:40:37;16.50;98.00
61386;DHT22;47256;18.904;-99.054;2024-01-11T09:43:05;16.60;97.90
61386;DHT22;47256;18.904;-99.054;2024-01-11T09:45:33;16.60;97.90
61386;DHT22;47256;18.904;-99.054;2024-01-11T09:48:01;16.60;97.90
61386;DHT22;47256;18.904;-99.054;2024-01-11T09:50:30;16.70;98.00
61386;DHT22;47256;18.904;-99.054;2024-01-11T09:52:57;16.60;98.10
61386;DHT22;47256;18.904;-99.054;2024-01-11T09:55:25;16.60;97.90
61386;DHT22;47256;18.904;-99.054;2024-01-11T09:57:56;16.70;98.00
61386;DHT22;47256;18.904;-99.054;2024-01-11T10:00:24;16.60;97.90
61386;DHT22;47256;18.904;-99.054;2024-01-11T10:02:53;16.50;98.10
61386;DHT22;47256;18.904;-99.054;2024-01-11T10:05:20;16.50;98.00
61386;DHT22;47256;18.904;-99.054;2024-01-11T10:07:47;16.40;98.10
61386;DHT22;47256;18.904;-99.054;2024-01-11T10:10:15;16.40;98.00
61386;DHT22;47256;18.904;-99.054;2024-01-11T10:12:42;16.40;97.80
61386;DHT22;47256;18.904;-99.054;2024-01-11T10:15:10;16.30;97.90
61386;DHT22;47256;18.904;-99.054;2024-01-11T10:17:42;16.30;98.00
61386;DHT22;47256;18.904;-99.054;2024-01-11T10:20:14;16.30;98.10
61386;DHT22;47256;18.904;-99.054;2024-01-11T10:22:43;16.30;98.00
61386;DHT22;47256;18.904;-99.054;2024-01-11T10:25:13;16.30;98.30
61386;DHT22;47256;18.904;-99.054;2024-01-11T10:27:41;16.20;98.30
61386;DHT22;47256;18.904;-99.054;2024-01-11T10:30:10;16.20;98.00
61386;DHT22;47256;18.904;-99.054;2024-01-11T10:32:40;16.10;98.00
61386;DHT22;47256;18.904;-99.054;2024-01-11T10:35:08;15.90;98.20
61386;DHT22;47256;18.904;-99.054;2024-01-11T10:37:37;15.90;98.10
61386;DHT22;47256;18.904;-99.054;2024-01-11T10:40:09;16.00;98.00
61386;DHT22;47256;18.904;-99.054;2024-01-11T10:42:42;16.00;98.00
61386;DHT22;47256;18.904;-99.054;2024-01-11T10:45:17;15.90;98.20
61386;DHT22;47256;18.904;-99.054;2024-01-11T10:47:53;16.00;98.10
61386;DHT22;47256;18.904;-99.054;2024-01-11T10:50:23;16.00;97.80
61386;DHT22;47256;18.904;-99.054;2024-01-11T10:55:33;16.10;97.50
61386;DHT22;47256;18.904;-99.054;2024-01-11T10:58:01;16.10;97.50
61386;DHT22;47256;18.904;-99.054;2024-01-11T11:00:29;16.20;97.50
61386;DHT22;47256;18.904;-99.054;2024-01-11T11:02:59;16.20;97.50
61386;DHT22;47256;18.904;-99.054;2024-01-11T11:05:28;16.20;97.60
61386;DHT22;47256;18.904;-99.054;2024-01-11T11:07:58;16.10;97.70
61386;DHT22;47256;18.904;-99.054;2024-01-11T11:10:27;16.20;97.70
61386;DHT22;47256;18.904;-99.054;2024-01-11T11:12:55;16.20;97.70
61386;DHT22;47256;18.904;-99.054;2024-01-11T11:15:24;16.20;97.80
61386;DHT22;47256;18.904;-99.054;2024-01-11T11:17:53;16.10;97.80
61386;DHT22;47256;18.904;-99.054;2024-01-11T11:20:21;16.10;97.80
61386;DHT22;47256;18.904;-99.054;2024-01-11T11:23:04;16.00;97.90
61386;DHT22;47256;18.904;-99.054;2024-01-11T11:25:31;15.90;98.10
61386;DHT22;47256;18.904;-99.054;2024-01-11T11:27:59;15.80;98.40
61386;DHT22;47256;18.904;-99.054;2024-01-11T11:30:31;15.80;98.30
61386;DHT22;47256;18.904;-99.054;2024-01-11T11:33:15;15.90;98.30
61386;DHT22;47256;18.904;-99.054;2024-01-11T11:35:43;15.90;98.20
61386;DHT22;47256;18.904;-99.054;2024-01-11T11:38:23;15.90;98.40
61386;DHT22;47256;18.904;-99.054;2024-01-11T11:40:53;15.90;98.50
61386;DHT22;47256;18.904;-99.054;2024-01-11T11:43:22;15.90;98.30
61386;DHT22;47256;18.904;-99.054;2024-01-11T11:45:50;15.80;98.40
61386;DHT22;47256;18.904;-99.054;2024-01-11T11:53:36;15.80;98.40
61386;DHT22;47256;18.904;-99.054;2024-01-11T11:56:03;15.80;98.30
61386;DHT22;47256;18.904;-99.054;2024-01-11T11:58:32;15.80;98.30
61386;DHT22;47256;18.904;-99.054;2024-01-11T12:01:02;15.80;98.20
61386;DHT22;47256;18.904;-99.054;2024-01-11T12:03:34;15.80;98.40
61386;DHT22;47256;18.904;-99.054;2024-01-11T12:06:06;15.80;98.40
61386;DHT22;47256;18.904;-99.054;2024-01-11T12:08:35;15.80;98.40
61386;DHT22;47256;18.904;-99.054;2024-01-11T12:11:03;15.80;98.30
61386;DHT22;47256;18.904;-99.054;2024-01-11T12:13:32;15.70;98.20
61386;DHT22;47256;18.904;-99.054;2024-01-11T12:16:00;15.70;98.20
61386;DHT22;47256;18.904;-99.054;2024-01-11T12:18:27;15.60;98.40
61386;DHT22;47256;18.904;-99.054;2024-01-11T12:20:55;15.40;98.70
61386;DHT22;47256;18.904;-99.054;2024-01-11T12:23:23;15.40;98.90
61386;DHT22;47256;18.904;-99.054;2024-01-11T12:25:50;15.40;99.00
61386;DHT22;47256;18.904;-99.054;2024-01-11T12:28:18;15.50;98.80
61386;DHT22;47256;18.904;-99.054;2024-01-11T12:30:45;15.40;98.90
61386;DHT22;47256;18.904;-99.054;2024-01-11T12:33:13;15.20;99.20
61386;DHT22;47256;18.904;-99.054;2024-01-11T12:35:41;15.20;99.30
61386;DHT22;47256;18.904;-99.054;2024-01-11T12:38:09;15.20;99.40
61386;DHT22;47256;18.904;-99.054;2024-01-11T12:40:37;15.20;99.50
61386;DHT22;47256;18.904;-99.054;2024-01-11T12:43:05;15.30;99.60
61386;DHT22;47256;18.904;-99.054;2024-01-11T12:45:37;15.40;99.80
61386;DHT22;47256;18.904;-99.054;2024-01-11T12:48:07;15.40;99.70
61386;DHT22;47256;18.904;-99.054;2024-01-11T12:50:35;15.40;99.80
61386;DHT22;47256;18.904;-99.054;2024-01-11T12:53:10;15.30;99.90
61386;DHT22;47256;18.904;-99.054;2024-01-11T12:56:03;15.40;99.80
61386;DHT22;47256;18.904;-99.054;2024-01-11T12:58:39;15.40;99.90
61386;DHT22;47256;18.904;-99.054;2024-01-11T13:01:08;15.30;99.80
61386;DHT22;47256;18.904;-99.054;2024-01-11T13:03:37;15.20;99.90
61386;DHT22;47256;18.904;-99.054;2024-01-11T13:06:04;15.10;99.70
61386;DHT22;47256;18.904;-99.054;2024-01-11T13:08:32;15.00;99.90
61386;DHT22;47256;18.904;-99.054;2024-01-11T13:11:01;15.10;99.90
61386;DHT22;47256;18.904;-99.054;2024-01-11T13:13:36;15.10;99.90
61386;DHT22;47256;18.904;-99.054;2024-01-11T13:16:04;15.10;99.90
61386;DHT22;47256;18.904;-99.054;2024-01-11T13:18:41;15.20;99.90
61386;DHT22;47256;18.904;-99.054;2024-01-11T13:21:08;15.20;99.80
61386;DHT22;47256;18.904;-99.054;2024-01-11T13:23:36;15.10;99.80
61386;DHT22;47256;18.904;-99.054;2024-01-11T13:26:05;15.10;99.90
61386;DHT22;47256;18.904;-99.054;2024-01-11T13:28:36;15.10;99.90
61386;DHT22;47256;18.904;-99.054;2024-01-11T13:31:03;15.20;99.90
61386;DHT22;47256;18.904;-99.054;2024-01-11T13:33:32;15.20;99.90
61386;DHT22;47256;18.904;-99.054;2024-01-11T13:36:00;15.20;99.90
61386;DHT22;47256;18.904;-99.054;2024-01-11T13:38:27;15.30;99.90
61386;DHT22;47256;18.904;-99.054;2024-01-11T13:40:54;15.30;99.90
61386;DHT22;47256;18.904;-99.054;2024-01-11T13:43:22;15.30;99.90
61386;DHT22;47256;18.904;-99.054;2024-01-11T13:45:49;15.40;99.90
61386;DHT22;47256;18.904;-99.054;2024-01-11T13:48:18;15.40;99.90
61386;DHT22;47256;18.904;-99.054;2024-01-11T13:50:45;15.50;99.90
61386;DHT22;47256;18.904;-99.054;2024-01-11T13:53:12;15.50;99.90
61386;DHT22;47256;18.904;-99.054;2024-01-11T13:55:42;15.60;99.90
61386;DHT22;47256;18.904;-99.054;2024-01-11T13:58:10;15.60;99.90
61386;DHT22;47256;18.904;-99.054;2024-01-11T14:00:41;15.70;99.90
61386;DHT22;47256;18.904;-99.054;2024-01-11T14:03:09;15.60;99.90
61386;DHT22;47256;18.904;-99.054;2024-01-11T14:05:38;15.70;99.90
61386;DHT22;47256;18.904;-99.054;2024-01-11T14:08:05;15.70;99.90
61386;DHT22;47256;18.904;-99.054;2024-01-11T14:10:34;15.80;99.90
61386;DHT22;47256;18.904;-99.054;2024-01-11T14:13:02;15.90;99.90
61386;DHT22;47256;18.904;-99.054;2024-01-11T14:15:29;16.00;99.90
61386;DHT22;47256;18.904;-99.054;2024-01-11T14:17:57;16.00;99.90
61386;DHT22;47256;18.904;-99.054;2024-01-11T14:20:24;16.10;99.90
61386;DHT22;47256;18.904;-99.054;2024-01-11T14:22:51;16.10;99.90
61386;DHT22;47256;18.904;-99.054;2024-01-11T14:25:21;16.20;99.90
61386;DHT22;47256;18.904;-99.054;2024-01-11T14:27:48;16.20;99.90
61386;DHT22;47256;18.904;-99.054;2024-01-11T14:30:16;16.30;99.90
61386;DHT22;47256;18.904;-99.054;2024-01-11T14:32:43;16.30;99.50
61386;DHT22;47256;18.904;-99.054;2024-01-11T14:35:36;16.40;99.80
61386;DHT22;47256;18.904;-99.054;2024-01-11T14:38:04;16.60;99.80
61386;DHT22;47256;18.904;-99.054;2024-01-11T14:40:31;16.70;99.80
61386;DHT22;47256;18.904;-99.054;2024-01-11T14:42:58;16.90;99.60
61386;DHT22;47256;18.904;-99.054;2024-01-11T14:45:26;17.10;99.80
61386;DHT22;47256;18.904;-99.054;2024-01-11T14:47:53;17.20;99.90
61386;DHT22;47256;18.904;-99.054;2024-01-11T14:50:21;17.40;99.90
61386;DHT22;47256;18.904;-99.054;2024-01-11T14:52:48;17.50;99.90
61386;DHT22;47256;18.904;-99.054;2024-01-11T14:55:16;17.60;99.90
61386;DHT22;47256;18.904;-99.054;2024-01-11T14:57:44;17.70;99.80
61386;DHT22;47256;18.904;-99.054;2024-01-11T15:00:11;17.80;99.90
61386;DHT22;47256;18.904;-99.054;2024-01-11T15:02:39;18.00;99.90
61386;DHT22;47256;18.904;-99.054;2024-01-11T15:05:08;18.10;99.90
61386;DHT22;47256;18.904;-99.054;2024-01-11T15:07:35;18.20;99.30
61386;DHT22;47256;18.904;-99.054;2024-01-11T15:10:02;18.40;99.10
61386;DHT22;47256;18.904;-99.054;2024-01-11T15:12:29;18.50;98.70
61386;DHT22;47256;18.904;-99.054;2024-01-11T15:14:58;18.60;98.00
61386;DHT22;47256;18.904;-99.054;2024-01-11T15:17:26;18.80;98.20
61386;DHT22;47256;18.904;-99.054;2024-01-11T15:19:53;19.00;98.30